LGKL

Details ICAO LGKL (KLX)
Name KALAMATA
Region Greece
Timezone Europe/Athens (UTC+2.0)
Plans Departing 71
Arriving 94
Stats Elevation 26 ft / 8 m (AMSL)
Location 37.068300° 22.025500°
Runways 1
Magnetic Variation 4.258° E
Sunrise 2018-12-13 05:37:55 UTC / 2018-12-13 07:37:55 Local
Sunset 2018-12-13 15:16:49 UTC / 2018-12-13 17:16:49 Local
Advertisement - Login to hide

Runways

ID Width Length Bearing (true/mag) Surface Threshold Overrun Markings Lighting
17R 148 ft / 45 m 9,274 ft / 2,827 m 169.51° / 165.25° ASPHALT 240 ft / 73 m 320 ft / 98 m APP EDGE THRESHOLD REIL-OMNI
35L 148 ft / 45 m 9,274 ft / 2,827 m 349.51° / 345.26° ASPHALT 250 ft / 76 m 310 ft / 94 m APP EDGE THRESHOLD CALVERT REIL-OMNI

Map

Weather


0- 5 10 15 20 25 30 35+ Temperature / °C

Clouds and Precipitation
Forecast for 2018-12-13 18:00 UTC. Updated 2 hours ago

Ground ~20,000 ft ~40,000 ft Winds

METAR

LGKL 131720Z 00000KT 7000 -RA SCT025 SCT040 BKN080 11/10 Q1016

TAF

Not found

Frequencies

Approach 122.10 MHz
Tower 120.75 MHz
Tower 122.10 MHz
Approach 120.75 MHz
Warning: Do not use this data for real-world aviation or navigation. No guarantee of current accuracy is given.